Time;durP1;ratioP1;P1;durP2;ratioP2;P2;SDS_P1;SDS_P2;PMS_P1;PMS_P2;Temp;Humidity;BMP_temperature;BMP_pressure;BME280_temperature;BME280_humidity;BME280_pressure;Samples;Min_cycle;Max_cycle;Signal;HPM_P1;HPM_P2
2022/04/19 00:02:04;;;;;;;;;;;;;;;10.73;47.26;99506.91;4384663;32;20037;-77
2022/04/19 00:04:31;;;;;;;;;;;;;;;10.48;48.35;99511.81;4385645;32;20069;-75
2022/04/19 00:06:58;;;;;;;;;;;;;;;10.48;48.03;99501.47;4384016;32;19979;-77
2022/04/19 00:09:25;;;;;;;;;;;;;;;10.71;47.41;99499.97;4385680;32;19989;-76
2022/04/19 00:11:52;;;;;;;;;;;;;;;10.61;47.67;99497.31;4385418;32;20092;-76
2022/04/19 00:14:18;;;;;;;;;;;;;;;10.74;47.26;99491.37;4382619;32;19983;-77
2022/04/19 00:16:46;;;;;;;;;;;;;;;10.59;47.40;99489.53;4378050;32;20265;-77
2022/04/19 00:19:13;;;;;;;;;;;;;;;10.34;48.46;99490.09;4385444;32;19990;-77
2022/04/19 00:21:40;;;;;;;;;;;;;;;10.33;48.57;99490.94;4384788;32;19994;-77
2022/04/19 00:24:07;;;;;;;;;;;;;;;10.48;48.33;99491.13;4391122;32;20268;-78
2022/04/19 00:26:34;;;;;;;;;;;;;;;10.56;48.03;99488.59;4393942;32;19993;-79
2022/04/19 00:29:00;;;;;;;;;;;;;;;10.31;48.66;99493.53;4385935;32;19975;-76
2022/04/19 00:31:27;;;;;;;;;;;;;;;10.29;48.71;99490.06;4382850;32;20356;-77
2022/04/19 00:33:54;;;;;;;;;;;;;;;10.57;47.72;99480.88;4382651;32;19993;-78
2022/04/19 00:36:24;;;;;;;;;;;;;;;10.33;48.38;99485.78;4378647;32;19997;-78
2022/04/19 00:38:51;;;;;;;;;;;;;;;10.30;48.50;99480.56;4386127;32;19979;-77
2022/04/19 00:41:19;;;;;;;;;;;;;;;10.30;48.22;99475.41;4384031;32;20338;-77
2022/04/19 00:43:46;;;;;;;;;;;;;;;10.24;48.76;99477.03;4384631;32;20054;-78
2022/04/19 00:46:12;;;;;;;;;;;;;;;10.36;48.66;99470.28;4385245;32;19978;-78
2022/04/19 00:48:40;;;;;;;;;;;;;;;10.32;48.73;99468.53;4383194;32;20004;-76
2022/04/19 00:51:07;;;;;;;;;;;;;;;10.33;48.63;99467.66;4385768;32;20005;-78
2022/04/19 00:53:34;;;;;;;;;;;;;;;10.52;47.99;99461.84;4391431;32;19982;-77
2022/04/19 00:56:03;;;;;;;;;;;;;;;10.38;48.59;99459.13;4399087;32;19994;-77
2022/04/19 00:58:29;;;;;;;;;;;;;;;10.30;49.07;99462.47;4386547;32;19982;-78
2022/04/19 01:00:56;;;;;;;;;;;;;;;10.25;49.29;99458.06;4390625;32;19986;-77
2022/04/19 01:03:24;;;;;;;;;;;;;;;10.50;48.22;99453.22;4399816;32;20037;-76
2022/04/19 01:05:53;;;;;;;;;;;;;;;9.95;49.73;99452.53;4400745;32;20285;-78
2022/04/19 01:08:20;;;;;;;;;;;;;;;9.87;50.36;99452.44;4399211;32;19982;-77
2022/04/19 01:10:47;;;;;;;;;;;;;;;10.11;49.26;99449.28;4399535;32;19986;-78
2022/04/19 01:13:18;;;;;;;;;;;;;;;10.17;49.18;99449.34;4409849;32;19992;-78
2022/04/19 01:15:48;;;;;;;;;;;;;;;10.21;49.40;99445.97;4398491;32;19994;-77
2022/04/19 01:18:20;;;;;;;;;;;;;;;10.16;49.82;99447.63;4399821;32;20472;-76
2022/04/19 01:20:48;;;;;;;;;;;;;;;10.19;49.39;99447.66;4400697;32;20061;-77
2022/04/19 01:23:20;;;;;;;;;;;;;;;10.17;49.38;99444.19;4405342;32;20349;-76
2022/04/19 01:25:47;;;;;;;;;;;;;;;10.01;49.94;99443.13;4415670;32;20041;-77
2022/04/19 01:28:14;;;;;;;;;;;;;;;10.18;49.26;99448.53;4397208;32;20448;-77
2022/04/19 01:30:43;;;;;;;;;;;;;;;10.03;49.85;99440.56;4400077;32;20415;-77
2022/04/19 01:33:10;;;;;;;;;;;;;;;10.46;48.19;99438.47;4410373;32;19971;-77
2022/04/19 01:35:38;;;;;;;;;;;;;;;10.21;49.16;99440.78;4392814;32;19997;-79
2022/04/19 01:38:05;;;;;;;;;;;;;;;10.34;48.39;99435.75;4394521;32;19990;-76
2022/04/19 01:40:33;;;;;;;;;;;;;;;10.41;48.87;99435.00;4389303;32;20003;-77
2022/04/19 01:43:01;;;;;;;;;;;;;;;10.39;49.46;99434.09;4370319;32;20344;-78
2022/04/19 01:45:30;;;;;;;;;;;;;;;10.27;49.70;99428.78;4351016;32;20035;-78
2022/04/19 01:47:57;;;;;;;;;;;;;;;9.91;50.90;99424.91;4371174;32;20029;-75
2022/04/19 01:50:28;;;;;;;;;;;;;;;10.20;50.22;99423.53;4368633;32;19995;-78
2022/04/19 01:52:56;;;;;;;;;;;;;;;10.22;50.17;99424.41;4360137;32;19979;-77
2022/04/19 01:55:23;;;;;;;;;;;;;;;10.39;48.92;99418.56;4368124;32;19983;-78
2022/04/19 01:57:56;;;;;;;;;;;;;;;10.33;49.42;99418.50;4371272;32;19991;-78
2022/04/19 02:00:29;;;;;;;;;;;;;;;10.48;48.95;99413.50;4374113;32;19982;-78
2022/04/19 02:03:01;;;;;;;;;;;;;;;10.41;49.11;99406.53;4386999;32;19970;-78
2022/04/19 02:05:28;;;;;;;;;;;;;;;10.12;50.05;99412.25;4384859;32;20332;-77
2022/04/19 02:07:54;;;;;;;;;;;;;;;10.32;49.32;99411.63;4379600;32;19982;-77
2022/04/19 02:10:21;;;;;;;;;;;;;;;9.98;50.19;99403.44;4385409;32;20366;-77
2022/04/19 02:12:50;;;;;;;;;;;;;;;9.98;50.62;99406.91;4385685;32;19975;-78
2022/04/19 02:15:22;;;;;;;;;;;;;;;10.02;50.18;99407.81;4385702;32;20016;-77
2022/04/19 02:17:50;;;;;;;;;;;;;;;9.94;50.52;99409.44;4373997;32;20039;-77
2022/04/19 02:20:18;;;;;;;;;;;;;;;10.05;50.13;99405.28;4376812;32;20057;-77
2022/04/19 02:22:45;;;;;;;;;;;;;;;10.07;50.10;99400.09;4385207;32;19978;-77
2022/04/19 02:25:12;;;;;;;;;;;;;;;10.01;50.10;99400.91;4386656;32;20352;-77
2022/04/19 02:27:40;;;;;;;;;;;;;;;10.12;49.76;99393.28;4386673;32;19997;-77
2022/04/19 02:30:13;;;;;;;;;;;;;;;9.86;50.31;99400.72;4389481;32;20006;-77
2022/04/19 02:32:45;;;;;;;;;;;;;;;9.82;49.98;99398.94;4391574;32;20348;-75
2022/04/19 02:35:15;;;;;;;;;;;;;;;9.89;49.77;99395.59;4386520;32;19990;-77
2022/04/19 02:37:49;;;;;;;;;;;;;;;9.83;49.88;99396.41;4379847;32;19983;-78
2022/04/19 02:40:17;;;;;;;;;;;;;;;9.87;49.86;99387.81;4377327;32;20010;-78
2022/04/19 02:42:44;;;;;;;;;;;;;;;9.84;49.87;99392.09;4387285;32;20822;-75
2022/04/19 02:45:12;;;;;;;;;;;;;;;9.88;49.64;99393.84;4381824;32;20004;-77
2022/04/19 02:47:41;;;;;;;;;;;;;;;9.76;50.11;99390.28;4374762;32;20283;-77
2022/04/19 02:50:08;;;;;;;;;;;;;;;9.78;50.19;99386.00;4384274;32;20077;-78
2022/04/19 02:52:35;;;;;;;;;;;;;;;9.81;49.82;99384.31;4379237;32;19975;-77
2022/04/19 02:55:02;;;;;;;;;;;;;;;9.64;50.32;99392.72;4387077;32;20046;-75
2022/04/19 02:57:29;;;;;;;;;;;;;;;9.37;50.88;99397.53;4075519;32;10003720;-77
2022/04/19 02:59:55;;;;;;;;;;;;;;;9.65;49.84;99397.03;4385434;32;20070;-77
2022/04/19 03:02:22;;;;;;;;;;;;;;;9.40;50.49;99405.31;4385647;32;20627;-78
2022/04/19 03:04:49;;;;;;;;;;;;;;;9.61;49.74;99410.78;4386729;32;19975;-78
2022/04/19 03:07:19;;;;;;;;;;;;;;;9.59;49.67;99406.44;4385911;32;19982;-77
2022/04/19 03:09:47;;;;;;;;;;;;;;;9.54;50.08;99411.53;4384951;32;19979;-78
2022/04/19 03:12:15;;;;;;;;;;;;;;;9.75;49.21;99410.94;4386690;32;20372;-77
2022/04/19 03:14:43;;;;;;;;;;;;;;;9.68;49.26;99407.41;4386377;32;20348;-76
2022/04/19 03:17:10;;;;;;;;;;;;;;;9.74;49.18;99407.50;4384381;32;19986;-79
2022/04/19 03:19:37;;;;;;;;;;;;;;;9.84;48.60;99412.78;4377535;32;20048;-77
2022/04/19 03:22:04;;;;;;;;;;;;;;;9.83;48.54;99400.69;4384065;32;19991;-77
2022/04/19 03:30:02;;;;;;;;;;;;;;;9.47;49.40;99399.37;4396803;32;20036;-77
2022/04/19 03:32:31;;;;;;;;;;;;;;;9.54;49.48;99393.47;4386343;32;20368;-77
2022/04/19 03:34:58;;;;;;;;;;;;;;;9.14;50.73;99398.06;4385990;32;20014;-78
2022/04/19 03:37:24;;;;;;;;;;;;;;;9.56;49.05;99402.09;4385814;32;19983;-77
2022/04/19 03:39:51;;;;;;;;;;;;;;;9.60;48.98;99398.69;4374573;32;20354;-77
2022/04/19 03:42:18;;;;;;;;;;;;;;;9.47;49.08;99396.78;4371384;32;19982;-77
2022/04/19 03:44:45;;;;;;;;;;;;;;;9.22;49.75;99396.47;4371682;32;20389;-77
2022/04/19 03:47:15;;;;;;;;;;;;;;;9.32;49.36;99393.16;4391136;32;19986;-77
2022/04/19 03:49:44;;;;;;;;;;;;;;;9.29;49.31;99393.13;4384823;32;19974;-76
2022/04/19 03:52:11;;;;;;;;;;;;;;;9.13;49.91;99391.16;4386069;32;20351;-77
2022/04/19 03:54:38;;;;;;;;;;;;;;;8.93;50.31;99392.56;4385905;32;20000;-76
2022/04/19 03:57:07;;;;;;;;;;;;;;;8.82;50.55;99390.69;4384957;32;19986;-78
2022/04/19 03:59:35;;;;;;;;;;;;;;;8.83;50.32;99386.41;4385454;32;19974;-76
2022/04/19 04:02:02;;;;;;;;;;;;;;;8.87;50.17;99392.47;4383880;32;19983;-78
2022/04/19 04:04:34;;;;;;;;;;;;;;;9.06;49.91;99387.62;4385472;32;19990;-78
2022/04/19 04:07:01;;;;;;;;;;;;;;;8.91;50.35;99382.25;4371909;32;20041;-78
2022/04/19 04:09:35;;;;;;;;;;;;;;;8.77;50.74;99386.31;4385774;32;20015;-77
2022/04/19 04:12:03;;;;;;;;;;;;;;;8.69;51.12;99388.78;4386362;32;20808;-78
2022/04/19 04:14:30;;;;;;;;;;;;;;;8.80;50.86;99386.34;4373261;32;20042;-77
2022/04/19 04:16:56;;;;;;;;;;;;;;;8.82;50.68;99382.94;4372020;32;19994;-77
2022/04/19 04:19:24;;;;;;;;;;;;;;;8.96;49.90;99384.88;4388828;32;20030;-77
2022/04/19 04:21:51;;;;;;;;;;;;;;;9.07;49.74;99386.78;4381634;32;19982;-77
2022/04/19 04:24:18;;;;;;;;;;;;;;;8.87;50.72;99384.72;4383622;32;20012;-77
2022/04/19 04:26:45;;;;;;;;;;;;;;;8.89;50.15;99390.78;4382206;32;20427;-77
2022/04/19 04:29:13;;;;;;;;;;;;;;;8.77;50.80;99397.47;4385996;32;19986;-77
2022/04/19 04:31:40;;;;;;;;;;;;;;;8.87;50.57;99397.63;4385275;32;19987;-77
2022/04/19 04:34:08;;;;;;;;;;;;;;;9.08;50.11;99397.97;4386003;32;20837;-78
2022/04/19 04:36:35;;;;;;;;;;;;;;;8.70;51.26;99400.81;4379306;32;19987;-79
2022/04/19 04:39:02;;;;;;;;;;;;;;;8.70;51.25;99394.78;4375808;32;20013;-77
2022/04/19 04:41:29;;;;;;;;;;;;;;;8.89;50.68;99391.66;4384905;32;19986;-77
2022/04/19 04:43:56;;;;;;;;;;;;;;;8.91;50.47;99394.28;4385842;32;19986;-77
2022/04/19 04:51:55;;;;;;;;;;;;;;;8.82;51.33;99401.03;4382580;32;19982;-77
2022/04/19 04:54:22;;;;;;;;;;;;;;;8.67;51.76;99399.91;4385571;32;20053;-77
2022/04/19 04:56:49;;;;;;;;;;;;;;;9.08;49.90;99397.97;4385455;32;20028;-77
2022/04/19 04:59:15;;;;;;;;;;;;;;;8.98;50.12;99401.25;4385875;32;19970;-77
2022/04/19 05:01:43;;;;;;;;;;;;;;;8.57;51.42;99404.91;4386113;32;19975;-78
2022/04/19 05:04:10;;;;;;;;;;;;;;;8.61;51.47;99400.66;4385766;32;19987;-77
2022/04/19 05:06:37;;;;;;;;;;;;;;;8.85;51.20;99406.22;4384776;32;19999;-78
2022/04/19 05:09:04;;;;;;;;;;;;;;;8.93;50.46;99398.59;4366738;32;19966;-77
2022/04/19 05:11:31;;;;;;;;;;;;;;;9.04;49.93;99402.22;4384936;32;20021;-77
2022/04/19 05:13:58;;;;;;;;;;;;;;;8.82;50.71;99405.31;4390939;32;20020;-77
2022/04/19 05:16:28;;;;;;;;;;;;;;;9.06;49.75;99404.81;4369836;32;19991;-78
2022/04/19 05:18:56;;;;;;;;;;;;;;;9.35;49.89;99401.78;4368575;32;19983;-77
2022/04/19 05:21:24;;;;;;;;;;;;;;;9.25;49.68;99404.25;4391436;32;19991;-76
2022/04/19 05:23:51;;;;;;;;;;;;;;;9.25;49.33;99401.69;4385106;32;19982;-77
2022/04/19 05:26:19;;;;;;;;;;;;;;;9.21;49.13;99402.47;4385253;32;19990;-79
2022/04/19 05:28:46;;;;;;;;;;;;;;;9.18;49.86;99406.72;4385477;32;19970;-78
2022/04/19 05:31:13;;;;;;;;;;;;;;;9.10;50.13;99405.75;4393567;32;19990;-80
2022/04/19 05:33:40;;;;;;;;;;;;;;;9.28;49.10;99408.59;4385066;32;19996;-79
2022/04/19 05:36:07;;;;;;;;;;;;;;;9.56;48.60;99402.09;4384555;32;19978;-78
2022/04/19 05:38:34;;;;;;;;;;;;;;;9.44;48.65;99401.91;4384796;32;20062;-79
2022/04/19 05:41:07;;;;;;;;;;;;;;;9.63;48.22;99403.88;4385104;32;19998;-76
2022/04/19 05:43:34;;;;;;;;;;;;;;;9.39;49.58;99411.34;4384097;32;20020;-80
2022/04/19 05:46:01;;;;;;;;;;;;;;;9.57;48.96;99411.56;4384810;32;19982;-78
2022/04/19 05:48:28;;;;;;;;;;;;;;;9.70;48.42;99405.72;4384573;32;19985;-79
2022/04/19 05:50:55;;;;;;;;;;;;;;;9.77;47.86;99406.66;4379582;32;20006;-80
2022/04/19 05:53:21;;;;;;;;;;;;;;;9.78;48.66;99406.66;4387891;32;20317;-80
2022/04/19 05:55:48;;;;;;;;;;;;;;;9.69;49.03;99409.13;4379784;32;19982;-79
2022/04/19 05:58:17;;;;;;;;;;;;;;;9.95;48.60;99406.00;4368158;32;20037;-79
2022/04/19 06:00:44;;;;;;;;;;;;;;;10.05;48.12;99410.44;4377439;32;19982;-80
2022/04/19 06:05:57;;;;;;;;;;;;;;;10.12;48.53;99404.47;4377687;32;20013;-81
2022/04/19 06:08:26;;;;;;;;;;;;;;;10.45;47.95;99405.69;4375516;32;20061;-80
2022/04/19 06:10:55;;;;;;;;;;;;;;;10.58;47.07;99410.12;4384805;32;19994;-75
2022/04/19 06:13:22;;;;;;;;;;;;;;;10.62;46.95;99406.72;4388609;32;20070;-79
2022/04/19 06:15:51;;;;;;;;;;;;;;;10.74;46.14;99407.69;4382140;32;19983;-80
2022/04/19 06:18:21;;;;;;;;;;;;;;;10.89;46.49;99402.62;4380561;32;20379;-78
2022/04/19 06:20:53;;;;;;;;;;;;;;;11.15;45.33;99403.69;4381463;32;20029;-76
2022/04/19 06:23:21;;;;;;;;;;;;;;;11.30;45.06;99402.06;4383386;32;19977;-76
2022/04/19 06:25:47;;;;;;;;;;;;;;;11.40;44.48;99399.53;4384530;32;19987;-78
2022/04/19 06:28:16;;;;;;;;;;;;;;;11.64;44.92;99393.56;4383471;32;19966;-78
2022/04/19 06:30:43;;;;;;;;;;;;;;;12.10;43.59;99391.19;4385033;32;20041;-77
2022/04/19 06:33:10;;;;;;;;;;;;;;;12.36;42.31;99380.00;4386268;32;19979;-78
2022/04/19 06:35:37;;;;;;;;;;;;;;;12.79;41.23;99382.59;4384416;32;21010;-78
2022/04/19 06:38:04;;;;;;;;;;;;;;;13.23;40.87;99382.56;4386581;32;20034;-78
2022/04/19 06:40:32;;;;;;;;;;;;;;;13.62;39.18;99379.88;4083339;32;10004195;-79
2022/04/19 06:43:00;;;;;;;;;;;;;;;13.78;38.39;99381.53;4386180;32;20771;-80
2022/04/19 06:45:28;;;;;;;;;;;;;;;13.69;38.27;99382.47;4385061;32;19974;-77
2022/04/19 06:48:01;;;;;;;;;;;;;;;14.28;37.26;99385.63;4386747;32;19998;-81
2022/04/19 06:50:28;;;;;;;;;;;;;;;14.14;37.41;99384.84;4384897;32;20025;-79
2022/04/19 06:52:55;;;;;;;;;;;;;;;13.76;37.76;99388.50;4385264;32;19990;-79
2022/04/19 06:55:24;;;;;;;;;;;;;;;14.23;36.88;99384.81;4383463;32;19987;-79
2022/04/19 06:57:51;;;;;;;;;;;;;;;14.01;38.32;99383.16;4351133;32;20406;-79
2022/04/19 07:00:18;;;;;;;;;;;;;;;13.75;38.04;99386.75;4382414;32;19986;-79
2022/04/19 07:02:45;;;;;;;;;;;;;;;14.20;37.44;99384.81;4385408;32;20335;-79
2022/04/19 07:05:15;;;;;;;;;;;;;;;14.37;36.83;99377.75;4370633;32;20348;-79
2022/04/19 07:07:43;;;;;;;;;;;;;;;14.58;35.84;99381.09;4368035;32;19987;-79
2022/04/19 07:10:11;;;;;;;;;;;;;;;14.45;36.00;99380.28;4365751;32;19995;-79
2022/04/19 07:12:47;;;;;;;;;;;;;;;14.36;36.34;99381.25;4364868;32;20477;-79
2022/04/19 07:15:14;;;;;;;;;;;;;;;14.80;36.16;99377.44;4362926;32;19982;-79
2022/04/19 07:17:43;;;;;;;;;;;;;;;15.30;35.54;99376.09;4370705;32;19990;-78
2022/04/19 07:28:28;;;;;;;;;;;;;;;16.09;32.22;99373.44;4365224;32;19999;-80
2022/04/19 07:30:56;;;;;;;;;;;;;;;16.28;31.24;99367.09;4370005;32;19983;-80
2022/04/19 07:33:23;;;;;;;;;;;;;;;15.96;32.06;99372.75;4359132;32;20615;-79
2022/04/19 07:35:51;;;;;;;;;;;;;;;16.13;32.52;99369.91;4370643;32;20026;-80
2022/04/19 07:38:18;;;;;;;;;;;;;;;16.54;32.06;99368.44;4370814;32;20700;-80
2022/04/19 07:40:45;;;;;;;;;;;;;;;16.31;31.95;99370.53;4371071;32;19971;-80
2022/04/19 07:43:12;;;;;;;;;;;;;;;16.36;30.95;99371.31;4369951;32;20075;-80
2022/04/19 07:45:39;;;;;;;;;;;;;;;16.26;33.07;99366.22;4369323;32;20957;-79
2022/04/19 07:48:06;;;;;;;;;;;;;;;16.36;31.51;99371.31;4370995;32;19994;-79
2022/04/19 07:50:34;;;;;;;;;;;;;;;16.51;31.24;99373.69;4369741;32;19967;-79
2022/04/19 07:53:01;;;;;;;;;;;;;;;16.73;32.13;99364.62;4369728;32;20099;-79
2022/04/19 07:55:28;;;;;;;;;;;;;;;16.35;33.18;99372.22;4370868;32;20407;-79
2022/04/19 07:57:55;;;;;;;;;;;;;;;16.46;33.66;99365.06;4371436;32;20051;-80
2022/04/19 08:00:24;;;;;;;;;;;;;;;16.89;31.35;99364.41;4370920;32;20351;-80
2022/04/19 08:02:51;;;;;;;;;;;;;;;17.07;29.50;99364.09;4381670;32;20039;-81
2022/04/19 08:05:18;;;;;;;;;;;;;;;16.79;29.74;99366.31;4370995;32;19994;-80
2022/04/19 08:07:48;;;;;;;;;;;;;;;16.65;30.44;99366.50;4370049;32;20026;-81
2022/04/19 08:10:16;;;;;;;;;;;;;;;16.71;29.77;99366.41;4370506;32;20050;-80
2022/04/19 08:12:44;;;;;;;;;;;;;;;16.62;31.01;99366.53;4370186;32;20017;-81
2022/04/19 08:15:11;;;;;;;;;;;;;;;16.95;30.77;99369.53;4371159;32;19979;-81
2022/04/19 08:17:38;;;;;;;;;;;;;;;17.41;29.43;99368.69;4370487;32;20738;-81
2022/04/19 08:20:05;;;;;;;;;;;;;;;17.33;30.51;99365.38;4368994;32;20026;-80
2022/04/19 08:22:33;;;;;;;;;;;;;;;17.93;28.77;99375.50;4091256;32;10004396;-81
2022/04/19 08:25:02;;;;;;;;;;;;;;;17.54;28.51;99370.16;4399965;32;20024;-81
2022/04/19 08:27:29;;;;;;;;;;;;;;;17.62;27.86;99373.50;4401186;32;19981;-80
2022/04/19 08:29:56;;;;;;;;;;;;;;;17.28;28.77;99364.56;4399705;32;20006;-81
2022/04/19 08:32:23;;;;;;;;;;;;;;;17.04;28.45;99366.75;4400214;32;19970;-81
2022/04/19 08:34:50;;;;;;;;;;;;;;;17.10;29.59;99358.81;4394656;32;19990;-81
2022/04/19 08:37:19;;;;;;;;;;;;;;;16.95;29.29;99364.31;3791180;32;10001082;-81
2022/04/19 08:39:46;;;;;;;;;;;;;;;17.25;28.54;99359.41;4389465;32;19986;-81
2022/04/19 08:42:13;;;;;;;;;;;;;;;16.82;28.76;99352.34;4386100;32;19995;-81
2022/04/19 08:44:40;;;;;;;;;;;;;;;16.65;29.21;99356.03;4385253;32;19991;-81
2022/04/19 08:47:07;;;;;;;;;;;;;;;17.18;28.57;99362.13;4385747;32;20005;-81
2022/04/19 08:49:37;;;;;;;;;;;;;;;16.48;29.82;99358.06;4383733;32;19998;-80
2022/04/19 08:52:03;;;;;;;;;;;;;;;16.07;32.16;99353.47;4385197;32;20466;-81
2022/04/19 08:57:31;;;;;;;;;;;;;;;16.81;29.77;99345.37;4385294;32;20019;-80
2022/04/19 08:59:59;;;;;;;;;;;;;;;17.03;28.99;99341.47;4382373;32;20004;-81
2022/04/19 09:02:26;;;;;;;;;;;;;;;17.01;30.09;99348.50;4396400;32;20070;-81
2022/04/19 09:04:53;;;;;;;;;;;;;;;17.20;28.90;99334.19;4385008;32;20398;-81
2022/04/19 09:07:20;;;;;;;;;;;;;;;17.13;27.36;99342.16;4383370;32;19982;-81
2022/04/19 09:09:58;;;;;;;;;;;;;;;17.47;27.34;99347.63;4383492;32;20037;-81
2022/04/19 09:12:25;;;;;;;;;;;;;;;17.09;27.76;99341.38;4385607;32;19979;-81
2022/04/19 09:14:56;;;;;;;;;;;;;;;16.76;29.89;99336.75;4384902;32;20474;-81
2022/04/19 09:17:31;;;;;;;;;;;;;;;17.30;28.19;99334.03;4385414;32;20325;-80
2022/04/19 09:20:11;;;;;;;;;;;;;;;17.13;27.26;99337.84;4384390;32;20002;-81
2022/04/19 09:22:38;;;;;;;;;;;;;;;17.18;27.45;99330.75;4384216;32;20009;-81
2022/04/19 09:25:24;;;;;;;;;;;;;;;17.56;27.65;99338.75;4385081;32;19990;-80
2022/04/19 09:27:52;;;;;;;;;;;;;;;17.49;28.43;99340.63;4384497;32;19978;-80
2022/04/19 09:30:25;;;;;;;;;;;;;;;17.74;26.11;99337.47;4396718;32;19974;-81
2022/04/19 09:33:11;;;;;;;;;;;;;;;17.81;27.43;99331.28;4384982;32;20336;-80
2022/04/19 09:35:39;;;;;;;;;;;;;;;17.54;25.84;99330.91;4384564;32;20488;-81
2022/04/19 09:38:08;;;;;;;;;;;;;;;17.33;27.10;99328.75;4385545;32;19992;-81
2022/04/19 09:40:38;;;;;;;;;;;;;;;17.50;27.13;99331.00;4385156;32;19979;-81
2022/04/19 09:43:10;;;;;;;;;;;;;;;17.99;26.21;99333.47;4385210;32;19978;-81
2022/04/19 09:45:47;;;;;;;;;;;;;;;17.93;25.43;99325.75;4385051;32;20009;-80
2022/04/19 09:48:15;;;;;;;;;;;;;;;17.52;25.92;99335.31;4383944;32;20338;-80
2022/04/19 09:50:47;;;;;;;;;;;;;;;17.75;24.98;99331.37;4090682;32;10001355;-81
2022/04/19 09:53:18;;;;;;;;;;;;;;;17.15;25.59;99330.81;4384745;32;20280;-81
2022/04/19 09:55:45;;;;;;;;;;;;;;;17.06;26.62;99325.75;4378693;32;20340;-81
2022/04/19 09:58:13;;;;;;;;;;;;;;;17.15;26.62;99325.56;4377658;32;19983;-81
2022/04/19 10:00:40;;;;;;;;;;;;;;;17.54;26.32;99320.44;4370096;32;20008;-81
2022/04/19 10:08:39;;;;;;;;;;;;;;;16.74;27.17;99324.53;4369519;32;20025;-81
2022/04/19 10:11:06;;;;;;;;;;;;;;;16.99;27.28;99318.91;4370083;32;20455;-80
2022/04/19 10:13:33;;;;;;;;;;;;;;;16.91;26.64;99320.78;4382939;32;19991;-80
2022/04/19 10:16:09;;;;;;;;;;;;;;;16.74;27.55;99319.31;4376942;32;20223;-81
2022/04/19 10:18:35;;;;;;;;;;;;;;;17.19;27.75;99321.13;4386134;32;20789;-80
2022/04/19 10:21:02;;;;;;;;;;;;;;;16.93;27.06;99316.41;4380060;32;19975;-81
2022/04/19 10:23:36;;;;;;;;;;;;;;;17.19;27.33;99316.75;4385504;32;20026;-80
2022/04/19 10:26:13;;;;;;;;;;;;;;;17.00;26.49;99317.16;4386694;32;19983;-80
2022/04/19 10:28:40;;;;;;;;;;;;;;;17.27;26.19;99310.53;4386210;32;20041;-81
2022/04/19 10:31:07;;;;;;;;;;;;;;;16.91;26.63;99305.97;4386487;32;19978;-81
2022/04/19 10:33:51;;;;;;;;;;;;;;;17.14;27.13;99307.31;4386467;32;20339;-81
2022/04/19 10:36:34;;;;;;;;;;;;;;;17.35;26.88;99311.25;4387076;32;19990;-80
2022/04/19 10:39:11;;;;;;;;;;;;;;;17.12;27.09;99307.31;4386639;32;20057;-80
2022/04/19 10:41:49;;;;;;;;;;;;;;;17.19;27.20;99303.69;4386632;32;19989;-80
2022/04/19 10:44:23;;;;;;;;;;;;;;;17.25;26.93;99304.47;4386050;32;20470;-81
2022/04/19 10:47:13;;;;;;;;;;;;;;;17.03;27.31;99304.88;4374371;32;20002;-79
2022/04/19 10:50:02;;;;;;;;;;;;;;;17.12;27.07;99299.47;4383967;32;20398;-80
2022/04/19 10:52:43;;;;;;;;;;;;;;;16.99;27.20;99305.84;4383301;32;19974;-80
2022/04/19 10:55:09;;;;;;;;;;;;;;;16.85;26.55;99305.25;4386158;32;20265;-81
2022/04/19 11:00:23;;;;;;;;;;;;;;;16.11;28.19;99306.38;4385882;32;20033;-80
2022/04/19 11:03:13;;;;;;;;;;;;;;;16.14;29.01;99310.72;4375548;32;20335;-81
2022/04/19 11:05:43;;;;;;;;;;;;;;;16.11;31.66;99316.84;4390240;32;20001;-81
2022/04/19 11:08:25;;;;;;;;;;;;;;;15.78;32.80;99324.25;4367536;32;20006;-81
2022/04/19 11:10:55;;;;;;;;;;;;;;;15.69;33.13;99316.56;4386477;32;20045;-80
2022/04/19 11:13:22;;;;;;;;;;;;;;;15.73;34.53;99318.25;4385619;32;20040;-81
2022/04/19 11:15:57;;;;;;;;;;;;;;;15.66;35.71;99319.16;4384654;32;19979;-81
2022/04/19 11:18:25;;;;;;;;;;;;;;;15.59;37.56;99320.13;4385375;32;19982;-81
2022/04/19 11:20:59;;;;;;;;;;;;;;;15.43;37.48;99310.78;4385718;32;20024;-81
2022/04/19 11:23:28;;;;;;;;;;;;;;;15.51;37.79;99324.59;4386577;32;19975;-81
2022/04/19 11:25:56;;;;;;;;;;;;;;;15.52;35.84;99321.97;4386542;32;19975;-82
2022/04/19 11:28:27;;;;;;;;;;;;;;;15.37;37.57;99323.88;4394331;32;19979;-81
2022/04/19 11:30:55;;;;;;;;;;;;;;;15.24;36.96;99331.84;4386278;32;20646;-80
2022/04/19 11:33:21;;;;;;;;;;;;;;;15.40;37.25;99331.69;4386298;32;19982;-80
2022/04/19 11:35:57;;;;;;;;;;;;;;;15.41;34.89;99343.81;4368020;32;20429;-80
2022/04/19 11:38:24;;;;;;;;;;;;;;;15.25;35.66;99344.03;4386392;32;20350;-80
2022/04/19 11:49:26;;;;;;;;;;;;;;;14.26;40.28;99369.13;4366247;32;20005;-81
2022/04/19 11:51:54;;;;;;;;;;;;;;;14.32;40.69;99368.25;4383745;32;20034;-79
2022/04/19 11:54:30;;;;;;;;;;;;;;;14.36;41.56;99355.22;4385600;32;19992;-79
2022/04/19 11:57:03;;;;;;;;;;;;;;;14.34;40.77;99362.16;4385209;32;19979;-81
2022/04/19 11:59:33;;;;;;;;;;;;;;;14.27;43.15;99365.69;4386329;32;20005;-80
2022/04/19 12:02:00;;;;;;;;;;;;;;;14.28;44.15;99372.59;4385463;32;19978;-80
2022/04/19 12:04:28;;;;;;;;;;;;;;;14.23;44.30;99379.59;4386021;32;19997;-78
2022/04/19 12:06:58;;;;;;;;;;;;;;;14.54;41.25;99372.44;4385891;32;19988;-81
2022/04/19 12:09:24;;;;;;;;;;;;;;;14.52;41.69;99375.97;4387930;32;19998;-81
2022/04/19 12:11:53;;;;;;;;;;;;;;;14.20;44.81;99374.41;4383461;32;19987;-81
2022/04/19 12:14:23;;;;;;;;;;;;;;;14.27;43.00;99376.09;4386624;32;20074;-81
2022/04/19 12:16:56;;;;;;;;;;;;;;;14.34;41.58;99374.31;4383881;32;19993;-81
2022/04/19 12:19:42;;;;;;;;;;;;;;;14.19;43.64;99372.66;4391034;32;19998;-79
2022/04/19 12:22:15;;;;;;;;;;;;;;;13.67;44.30;99373.78;4392008;32;20052;-79
2022/04/19 12:24:46;;;;;;;;;;;;;;;13.65;42.78;99372.06;4382563;32;20033;-79
2022/04/19 12:27:13;;;;;;;;;;;;;;;13.71;43.19;99374.66;4390969;32;19994;-79
2022/04/19 12:29:53;;;;;;;;;;;;;;;13.65;44.39;99374.66;4391577;32;19986;-79
2022/04/19 12:32:20;;;;;;;;;;;;;;;13.76;42.62;99372.91;4392333;32;20533;-79
2022/04/19 12:34:47;;;;;;;;;;;;;;;13.69;44.86;99371.22;4389625;32;20057;-79
2022/04/19 12:37:17;;;;;;;;;;;;;;;13.77;42.11;99369.41;4392221;32;20034;-80
2022/04/19 12:39:58;;;;;;;;;;;;;;;13.57;43.70;99376.44;4393713;32;19992;-80
2022/04/19 12:42:25;;;;;;;;;;;;;;;13.72;42.84;99371.19;4392567;32;20043;-80
2022/04/19 12:45:03;;;;;;;;;;;;;;;13.58;44.72;99372.97;4392453;32;20438;-80
2022/04/19 12:47:29;;;;;;;;;;;;;;;13.67;44.77;99367.75;4391963;32;20312;-80
2022/04/19 12:49:57;;;;;;;;;;;;;;;13.61;44.12;99368.63;4403695;32;20036;-79
2022/04/19 12:52:32;;;;;;;;;;;;;;;13.85;42.41;99362.47;4391262;32;20018;-80
2022/04/19 12:55:00;;;;;;;;;;;;;;;13.86;43.59;99364.19;4389121;32;20737;-80
2022/04/19 12:57:27;;;;;;;;;;;;;;;13.92;43.17;99360.69;4393162;32;19982;-80
2022/04/19 12:59:53;;;;;;;;;;;;;;;13.83;42.35;99364.19;4392072;32;20352;-80
2022/04/19 13:02:20;;;;;;;;;;;;;;;13.73;43.26;99362.50;4390346;32;20075;-79
2022/04/19 13:04:48;;;;;;;;;;;;;;;14.05;41.32;99364.09;4388889;32;19990;-81
2022/04/19 13:12:46;;;;;;;;;;;;;;;13.82;41.89;99361.63;4363708;32;880319;-79
2022/04/19 13:15:13;;;;;;;;;;;;;;;13.98;42.56;99357.19;4392023;32;19987;-80
2022/04/19 13:17:41;;;;;;;;;;;;;;;14.04;42.32;99363.22;4386100;32;19991;-81
2022/04/19 13:20:11;;;;;;;;;;;;;;;14.06;42.90;99360.59;4375755;32;20010;-80
2022/04/19 13:22:38;;;;;;;;;;;;;;;14.12;41.96;99364.03;4381789;32;19994;-81
2022/04/19 13:25:07;;;;;;;;;;;;;;;14.10;42.06;99367.50;4386833;32;19967;-81
2022/04/19 13:27:35;;;;;;;;;;;;;;;14.11;42.69;99369.25;4387600;32;20280;-82
2022/04/19 13:30:03;;;;;;;;;;;;;;;14.47;41.10;99373.34;4388349;32;20001;-80
2022/04/19 13:32:30;;;;;;;;;;;;;;;14.47;41.75;99372.50;4382508;32;19986;-82
2022/04/19 13:34:57;;;;;;;;;;;;;;;14.86;40.37;99371.31;4377338;32;19989;-81
2022/04/19 13:40:14;;;;;;;;;;;;;;;14.69;40.37;99366.28;4384520;32;19997;-82
2022/04/19 13:42:41;;;;;;;;;;;;;;;14.63;39.81;99364.56;4389798;32;19991;-81
2022/04/19 13:45:08;;;;;;;;;;;;;;;14.67;38.12;99362.81;4384697;32;20343;-82
2022/04/19 13:47:35;;;;;;;;;;;;;;;14.78;39.86;99366.19;4384440;32;19990;-81